sim
Sign-in with your pilot id or email,
or register
Callsign
Passwort

Schedule Details

Flight Number: EWG2682 (2)
Departure: Stuttgart Airport (EDDS) at 08:40
Arrival: Thessaloniki International Airport (LGTS) at 11:00
Route: Eurowings Passenger Schedule. Enter filed route here before submitting Pirep.

Weather Information
Getting current METAR information for EDDS 230720Z VRB02KT CAVOK 17/13 Q1026 NOSIG
Getting current METAR information for LGTS 230720Z 27005KT CAVOK 29/19 Q1020 NOSIG

Schedule Frequency

Route Map